sensor_id;sensor_type;location;lat;lon;timestamp;pressure;altitude;pressure_sealevel;temperature;humidity
44697;BME280;57264;47.480;19.354;2023-04-08T00:01:33;99331.16;;;2.10;90.53
44697;BME280;57264;47.480;19.354;2023-04-08T00:03:59;99332.00;;;2.11;90.62
44697;BME280;57264;47.480;19.354;2023-04-08T00:06:24;99329.25;;;2.12;90.59
44697;BME280;57264;47.480;19.354;2023-04-08T00:08:51;99324.22;;;2.11;90.36
44697;BME280;57264;47.480;19.354;2023-04-08T00:11:17;99329.97;;;2.05;90.83
44697;BME280;57264;47.480;19.354;2023-04-08T00:13:42;99332.44;;;2.06;90.44
44697;BME280;57264;47.480;19.354;2023-04-08T00:16:08;99330.66;;;2.07;90.84
44697;BME280;57264;47.480;19.354;2023-04-08T00:18:33;99337.31;;;2.09;90.71
44697;BME280;57264;47.480;19.354;2023-04-08T00:20:59;99348.34;;;2.11;90.79
44697;BME280;57264;47.480;19.354;2023-04-08T00:23:24;99334.66;;;2.19;90.33
44697;BME280;57264;47.480;19.354;2023-04-08T00:25:50;99340.72;;;2.27;90.50
44697;BME280;57264;47.480;19.354;2023-04-08T00:28:15;99340.16;;;2.42;89.33
44697;BME280;57264;47.480;19.354;2023-04-08T00:30:41;99334.63;;;2.37;89.52
44697;BME280;57264;47.480;19.354;2023-04-08T00:33:06;99340.47;;;2.39;89.51
44697;BME280;57264;47.480;19.354;2023-04-08T00:35:33;99349.94;;;2.48;89.56
44697;BME280;57264;47.480;19.354;2023-04-08T00:37:58;99347.97;;;2.50;89.86
44697;BME280;57264;47.480;19.354;2023-04-08T00:40:25;99342.81;;;2.50;89.61
44697;BME280;57264;47.480;19.354;2023-04-08T00:42:50;99349.13;;;2.47;89.67
44697;BME280;57264;47.480;19.354;2023-04-08T00:45:16;99341.53;;;2.54;89.18
44697;BME280;57264;47.480;19.354;2023-04-08T00:47:41;99346.72;;;2.54;89.77
44697;BME280;57264;47.480;19.354;2023-04-08T00:50:08;99346.25;;;2.58;89.58
44697;BME280;57264;47.480;19.354;2023-04-08T00:52:37;99352.88;;;2.53;89.78
44697;BME280;57264;47.480;19.354;2023-04-08T00:55:02;99347.13;;;2.67;89.84
44697;BME280;57264;47.480;19.354;2023-04-08T00:57:28;99345.44;;;2.58;89.66
44697;BME280;57264;47.480;19.354;2023-04-08T00:59:53;99345.81;;;2.63;89.58
44697;BME280;57264;47.480;19.354;2023-04-08T01:02:42;99351.44;;;2.58;89.45
44697;BME280;57264;47.480;19.354;2023-04-08T01:05:27;99354.09;;;2.66;89.21
44697;BME280;57264;47.480;19.354;2023-04-08T01:07:56;99352.97;;;2.69;88.97
44697;BME280;57264;47.480;19.354;2023-04-08T01:10:34;99351.13;;;2.61;89.17
44697;BME280;57264;47.480;19.354;2023-04-08T01:13:08;99347.41;;;2.56;89.38
44697;BME280;57264;47.480;19.354;2023-04-08T01:15:37;99348.28;;;2.47;90.28
44697;BME280;57264;47.480;19.354;2023-04-08T01:18:10;99346.47;;;2.39;90.33
44697;BME280;57264;47.480;19.354;2023-04-08T01:20:38;99348.81;;;2.50;89.94
44697;BME280;57264;47.480;19.354;2023-04-08T01:26:02;99344.47;;;2.33;90.95
44697;BME280;57264;47.480;19.354;2023-04-08T01:28:29;99349.34;;;2.36;91.09
44697;BME280;57264;47.480;19.354;2023-04-08T01:30:57;99344.19;;;2.36;91.00
44697;BME280;57264;47.480;19.354;2023-04-08T01:33:24;99337.72;;;2.40;90.45
44697;BME280;57264;47.480;19.354;2023-04-08T01:35:53;99339.06;;;2.44;90.48
44697;BME280;57264;47.480;19.354;2023-04-08T01:38:22;99345.34;;;2.42;90.96
44697;BME280;57264;47.480;19.354;2023-04-08T01:40:51;99348.69;;;2.34;91.01
44697;BME280;57264;47.480;19.354;2023-04-08T01:43:18;99350.75;;;2.48;91.01
44697;BME280;57264;47.480;19.354;2023-04-08T01:45:45;99343.94;;;2.47;90.16
44697;BME280;57264;47.480;19.354;2023-04-08T01:48:12;99337.88;;;2.39;90.62
44697;BME280;57264;47.480;19.354;2023-04-08T01:50:41;99334.25;;;2.31;90.61
44697;BME280;57264;47.480;19.354;2023-04-08T01:53:09;99344.00;;;2.38;90.30
44697;BME280;57264;47.480;19.354;2023-04-08T01:55:37;99337.22;;;2.37;90.59
44697;BME280;57264;47.480;19.354;2023-04-08T01:58:05;99334.09;;;2.33;91.01
44697;BME280;57264;47.480;19.354;2023-04-08T02:00:33;99331.72;;;2.40;90.50
44697;BME280;57264;47.480;19.354;2023-04-08T02:03:01;99337.88;;;2.39;91.02
44697;BME280;57264;47.480;19.354;2023-04-08T02:05:28;99340.16;;;2.42;90.97
44697;BME280;57264;47.480;19.354;2023-04-08T02:07:53;99336.28;;;2.46;90.82
44697;BME280;57264;47.480;19.354;2023-04-08T02:10:19;99336.25;;;2.38;90.76
44697;BME280;57264;47.480;19.354;2023-04-08T02:12:45;99330.66;;;2.24;91.32
44697;BME280;57264;47.480;19.354;2023-04-08T02:15:12;99335.91;;;2.32;91.52
44697;BME280;57264;47.480;19.354;2023-04-08T02:17:42;99328.19;;;2.41;90.99
44697;BME280;57264;47.480;19.354;2023-04-08T02:20:37;99330.84;;;2.49;89.88
44697;BME280;57264;47.480;19.354;2023-04-08T02:23:26;99328.31;;;2.39;90.74
44697;BME280;57264;47.480;19.354;2023-04-08T02:25:55;99331.50;;;2.33;90.77
44697;BME280;57264;47.480;19.354;2023-04-08T02:28:21;99327.97;;;2.34;91.42
44697;BME280;57264;47.480;19.354;2023-04-08T02:30:50;99337.66;;;2.32;91.25
44697;BME280;57264;47.480;19.354;2023-04-08T02:33:19;99327.66;;;2.37;90.45
44697;BME280;57264;47.480;19.354;2023-04-08T02:35:46;99326.50;;;2.31;91.14
44697;BME280;57264;47.480;19.354;2023-04-08T02:38:12;99331.22;;;2.36;90.62
44697;BME280;57264;47.480;19.354;2023-04-08T02:40:38;99335.91;;;2.32;91.22
44697;BME280;57264;47.480;19.354;2023-04-08T02:43:03;99336.41;;;2.36;91.57
44697;BME280;57264;47.480;19.354;2023-04-08T02:45:32;99326.31;;;2.33;91.22
44697;BME280;57264;47.480;19.354;2023-04-08T02:47:58;99329.09;;;2.31;91.70
44697;BME280;57264;47.480;19.354;2023-04-08T02:50:25;99331.13;;;2.46;90.60
44697;BME280;57264;47.480;19.354;2023-04-08T02:52:50;99328.19;;;2.41;90.54
44697;BME280;57264;47.480;19.354;2023-04-08T02:55:15;99333.38;;;2.41;90.62
44697;BME280;57264;47.480;19.354;2023-04-08T02:57:42;99327.38;;;2.40;90.88
44697;BME280;57264;47.480;19.354;2023-04-08T03:00:08;99333.13;;;2.34;91.25
44697;BME280;57264;47.480;19.354;2023-04-08T03:02:34;99329.72;;;2.33;91.22
44697;BME280;57264;47.480;19.354;2023-04-08T03:04:59;99342.09;;;2.22;90.80
44697;BME280;57264;47.480;19.354;2023-04-08T03:07:25;99342.16;;;2.30;90.88
44697;BME280;57264;47.480;19.354;2023-04-08T03:09:51;99334.84;;;2.25;91.07
44697;BME280;57264;47.480;19.354;2023-04-08T03:12:17;99343.50;;;2.34;90.90
44697;BME280;57264;47.480;19.354;2023-04-08T03:14:42;99345.28;;;2.33;90.26
44697;BME280;57264;47.480;19.354;2023-04-08T03:17:08;99331.44;;;2.25;90.98
44697;BME280;57264;47.480;19.354;2023-04-08T03:19:33;99344.63;;;2.31;90.70
44697;BME280;57264;47.480;19.354;2023-04-08T03:21:59;99347.22;;;2.31;90.26
44697;BME280;57264;47.480;19.354;2023-04-08T03:24:40;99348.84;;;2.32;90.46
44697;BME280;57264;47.480;19.354;2023-04-08T03:27:06;99346.59;;;2.38;90.44
44697;BME280;57264;47.480;19.354;2023-04-08T03:29:32;99347.22;;;2.31;90.48
44697;BME280;57264;47.480;19.354;2023-04-08T03:31:58;99352.09;;;2.34;90.03
44697;BME280;57264;47.480;19.354;2023-04-08T03:34:24;99353.34;;;2.30;90.13
44697;BME280;57264;47.480;19.354;2023-04-08T03:36:49;99350.38;;;2.25;90.26
44697;BME280;57264;47.480;19.354;2023-04-08T03:39:15;99351.50;;;2.41;90.24
44697;BME280;57264;47.480;19.354;2023-04-08T03:41:40;99351.63;;;2.39;90.77
44697;BME280;57264;47.480;19.354;2023-04-08T03:44:06;99353.78;;;2.44;90.89
44697;BME280;57264;47.480;19.354;2023-04-08T03:46:31;99357.53;;;2.49;90.58
44697;BME280;57264;47.480;19.354;2023-04-08T03:48:57;99356.81;;;2.57;90.75
44697;BME280;57264;47.480;19.354;2023-04-08T03:51:22;99349.53;;;2.60;90.14
44697;BME280;57264;47.480;19.354;2023-04-08T03:53:48;99355.28;;;2.72;90.19
44697;BME280;57264;47.480;19.354;2023-04-08T03:56:14;99363.75;;;2.56;90.40
44697;BME280;57264;47.480;19.354;2023-04-08T03:58:39;99370.84;;;2.54;90.00
44697;BME280;57264;47.480;19.354;2023-04-08T04:01:05;99369.06;;;2.55;90.37
44697;BME280;57264;47.480;19.354;2023-04-08T04:03:30;99370.34;;;2.51;90.42
44697;BME280;57264;47.480;19.354;2023-04-08T04:05:56;99375.22;;;2.54;90.29
44697;BME280;57264;47.480;19.354;2023-04-08T04:08:21;99379.38;;;2.47;90.08
44697;BME280;57264;47.480;19.354;2023-04-08T04:10:47;99377.16;;;2.52;90.34
44697;BME280;57264;47.480;19.354;2023-04-08T04:13:12;99373.63;;;2.53;90.28
44697;BME280;57264;47.480;19.354;2023-04-08T04:15:39;99383.66;;;2.56;90.56
44697;BME280;57264;47.480;19.354;2023-04-08T04:18:05;99380.13;;;2.57;90.59
44697;BME280;57264;47.480;19.354;2023-04-08T04:20:31;99384.13;;;2.51;90.64
44697;BME280;57264;47.480;19.354;2023-04-08T04:22:56;99373.06;;;2.49;90.80
44697;BME280;57264;47.480;19.354;2023-04-08T04:25:22;99380.16;;;2.65;90.37
44697;BME280;57264;47.480;19.354;2023-04-08T04:27:48;99383.28;;;2.68;90.08
44697;BME280;57264;47.480;19.354;2023-04-08T04:30:13;99380.81;;;2.67;90.61
44697;BME280;57264;47.480;19.354;2023-04-08T04:32:44;99383.66;;;2.56;90.41
44697;BME280;57264;47.480;19.354;2023-04-08T04:35:10;99392.91;;;2.58;90.55
44697;BME280;57264;47.480;19.354;2023-04-08T04:37:36;99385.63;;;2.62;90.09
44697;BME280;57264;47.480;19.354;2023-04-08T04:40:02;99392.78;;;2.60;90.06
44697;BME280;57264;47.480;19.354;2023-04-08T04:42:29;99385.94;;;2.59;90.20
44697;BME280;57264;47.480;19.354;2023-04-08T04:44:54;99383.06;;;2.62;90.21
44697;BME280;57264;47.480;19.354;2023-04-08T04:47:20;99387.13;;;2.64;90.30
44697;BME280;57264;47.480;19.354;2023-04-08T04:49:45;99384.31;;;2.58;89.99
44697;BME280;57264;47.480;19.354;2023-04-08T04:52:11;99393.22;;;2.55;90.05
44697;BME280;57264;47.480;19.354;2023-04-08T04:54:37;99388.28;;;2.70;89.87
44697;BME280;57264;47.480;19.354;2023-04-08T04:57:02;99392.78;;;2.60;89.78
44697;BME280;57264;47.480;19.354;2023-04-08T04:59:28;99392.81;;;2.68;89.64
44697;BME280;57264;47.480;19.354;2023-04-08T05:01:53;99390.44;;;2.74;89.47
44697;BME280;57264;47.480;19.354;2023-04-08T05:04:22;99392.50;;;2.71;88.96
44697;BME280;57264;47.480;19.354;2023-04-08T05:06:48;99395.75;;;2.73;89.58
44697;BME280;57264;47.480;19.354;2023-04-08T05:09:13;99403.53;;;2.73;89.34
44697;BME280;57264;47.480;19.354;2023-04-08T05:11:39;99404.00;;;2.68;88.78
44697;BME280;57264;47.480;19.354;2023-04-08T05:14:05;99405.72;;;2.60;89.32
44697;BME280;57264;47.480;19.354;2023-04-08T05:16:32;99415.47;;;2.66;89.05
44697;BME280;57264;47.480;19.354;2023-04-08T05:18:58;99404.66;;;2.70;89.17
44697;BME280;57264;47.480;19.354;2023-04-08T05:21:23;99413.75;;;2.74;89.53
44697;BME280;57264;47.480;19.354;2023-04-08T05:23:49;99417.31;;;2.73;88.84
44697;BME280;57264;47.480;19.354;2023-04-08T05:26:21;99419.19;;;2.63;89.42
44697;BME280;57264;47.480;19.354;2023-04-08T05:28:49;99412.13;;;2.73;89.13
44697;BME280;57264;47.480;19.354;2023-04-08T05:31:19;99424.63;;;2.78;89.11
44697;BME280;57264;47.480;19.354;2023-04-08T05:33:45;99431.25;;;2.72;89.32
44697;BME280;57264;47.480;19.354;2023-04-08T05:36:11;99428.66;;;2.72;89.38
44697;BME280;57264;47.480;19.354;2023-04-08T05:38:37;99432.59;;;2.76;89.29
44697;BME280;57264;47.480;19.354;2023-04-08T05:41:03;99431.75;;;2.76;89.70
44697;BME280;57264;47.480;19.354;2023-04-08T05:43:29;99431.44;;;2.79;89.08
44697;BME280;57264;47.480;19.354;2023-04-08T05:45:54;99427.59;;;2.83;89.36
44697;BME280;57264;47.480;19.354;2023-04-08T05:48:20;99431.13;;;2.82;89.18
44697;BME280;57264;47.480;19.354;2023-04-08T05:50:45;99433.16;;;2.88;88.94
44697;BME280;57264;47.480;19.354;2023-04-08T05:53:13;99441.19;;;2.85;88.48
44697;BME280;57264;47.480;19.354;2023-04-08T05:55:39;99430.88;;;2.93;88.65
44697;BME280;57264;47.480;19.354;2023-04-08T05:58:05;99432.47;;;2.86;89.06
44697;BME280;57264;47.480;19.354;2023-04-08T06:00:30;99439.59;;;2.84;88.95
44697;BME280;57264;47.480;19.354;2023-04-08T06:02:56;99444.16;;;2.90;88.90
44697;BME280;57264;47.480;19.354;2023-04-08T06:05:22;99450.56;;;2.78;88.58
44697;BME280;57264;47.480;19.354;2023-04-08T06:07:47;99445.38;;;2.78;89.53
44697;BME280;57264;47.480;19.354;2023-04-08T06:10:13;99444.84;;;2.92;88.70
44697;BME280;57264;47.480;19.354;2023-04-08T06:12:38;99443.41;;;2.98;88.29
44697;BME280;57264;47.480;19.354;2023-04-08T06:15:05;99452.25;;;2.87;88.28
44697;BME280;57264;47.480;19.354;2023-04-08T06:17:31;99457.50;;;2.77;88.50
44697;BME280;57264;47.480;19.354;2023-04-08T06:19:56;99449.59;;;2.79;88.65
44697;BME280;57264;47.480;19.354;2023-04-08T06:22:22;99466.78;;;2.80;88.38
44697;BME280;57264;47.480;19.354;2023-04-08T06:24:48;99463.22;;;2.81;88.35
44697;BME280;57264;47.480;19.354;2023-04-08T06:27:14;99458.09;;;2.89;88.09
44697;BME280;57264;47.480;19.354;2023-04-08T06:29:40;99451.09;;;3.07;88.00
44697;BME280;57264;47.480;19.354;2023-04-08T06:32:05;99460.06;;;3.13;87.59
44697;BME280;57264;47.480;19.354;2023-04-08T06:34:31;99463.63;;;2.94;88.08
44697;BME280;57264;47.480;19.354;2023-04-08T06:36:57;99462.06;;;3.01;88.40
44697;BME280;57264;47.480;19.354;2023-04-08T06:39:22;99458.38;;;3.04;88.37
44697;BME280;57264;47.480;19.354;2023-04-08T06:41:48;99463.09;;;3.08;88.80
44697;BME280;57264;47.480;19.354;2023-04-08T06:44:14;99465.63;;;3.00;88.72
44697;BME280;57264;47.480;19.354;2023-04-08T06:46:40;99470.88;;;3.08;88.52
44697;BME280;57264;47.480;19.354;2023-04-08T06:49:05;99464.63;;;3.19;88.07
44697;BME280;57264;47.480;19.354;2023-04-08T06:51:31;99468.69;;;3.21;87.39
44697;BME280;57264;47.480;19.354;2023-04-08T06:53:57;99470.63;;;3.19;88.14
44697;BME280;57264;47.480;19.354;2023-04-08T06:56:23;99469.84;;;3.27;87.92
44697;BME280;57264;47.480;19.354;2023-04-08T06:58:51;99467.31;;;3.09;87.39
44697;BME280;57264;47.480;19.354;2023-04-08T07:01:17;99467.25;;;3.27;87.71
44697;BME280;57264;47.480;19.354;2023-04-08T07:03:42;99468.16;;;3.44;86.85
44697;BME280;57264;47.480;19.354;2023-04-08T07:06:08;99481.50;;;3.49;87.03
44697;BME280;57264;47.480;19.354;2023-04-08T07:08:34;99476.81;;;3.52;86.68
44697;BME280;57264;47.480;19.354;2023-04-08T07:11:00;99480.00;;;3.72;85.78
44697;BME280;57264;47.480;19.354;2023-04-08T07:13:26;99483.31;;;3.56;86.29
44697;BME280;57264;47.480;19.354;2023-04-08T07:15:52;99478.59;;;3.52;86.14
44697;BME280;57264;47.480;19.354;2023-04-08T07:18:18;99488.38;;;3.32;86.72
44697;BME280;57264;47.480;19.354;2023-04-08T07:20:43;99491.16;;;3.39;86.97
44697;BME280;57264;47.480;19.354;2023-04-08T07:23:09;99487.25;;;3.35;86.70
44697;BME280;57264;47.480;19.354;2023-04-08T07:25:35;99495.72;;;3.37;87.89
44697;BME280;57264;47.480;19.354;2023-04-08T07:28:01;99493.31;;;3.43;87.23
44697;BME280;57264;47.480;19.354;2023-04-08T07:30:26;99496.97;;;3.33;87.93
44697;BME280;57264;47.480;19.354;2023-04-08T07:32:52;99498.50;;;3.43;87.47
44697;BME280;57264;47.480;19.354;2023-04-08T07:35:20;99509.53;;;3.19;87.77
44697;BME280;57264;47.480;19.354;2023-04-08T07:37:49;99508.22;;;3.15;88.24
44697;BME280;57264;47.480;19.354;2023-04-08T07:40:16;99512.81;;;3.29;88.05
44697;BME280;57264;47.480;19.354;2023-04-08T07:42:41;99515.69;;;3.18;88.50
44697;BME280;57264;47.480;19.354;2023-04-08T07:45:07;99515.47;;;3.12;88.84
44697;BME280;57264;47.480;19.354;2023-04-08T07:47:33;99524.41;;;3.17;87.70
44697;BME280;57264;47.480;19.354;2023-04-08T07:49:58;99521.88;;;3.25;87.70
44697;BME280;57264;47.480;19.354;2023-04-08T07:52:24;99520.72;;;3.20;88.72
44697;BME280;57264;47.480;19.354;2023-04-08T07:54:50;99524.72;;;3.14;87.97
44697;BME280;57264;47.480;19.354;2023-04-08T07:57:16;99515.88;;;3.25;88.44
44697;BME280;57264;47.480;19.354;2023-04-08T07:59:41;99522.56;;;3.27;88.20
44697;BME280;57264;47.480;19.354;2023-04-08T08:02:07;99531.53;;;3.15;87.95
44697;BME280;57264;47.480;19.354;2023-04-08T08:04:32;99537.03;;;3.12;87.89
44697;BME280;57264;47.480;19.354;2023-04-08T08:06:58;99530.03;;;3.30;87.97
44697;BME280;57264;47.480;19.354;2023-04-08T08:09:24;99532.25;;;3.25;86.88
44697;BME280;57264;47.480;19.354;2023-04-08T08:11:49;99532.75;;;3.29;87.80
44697;BME280;57264;47.480;19.354;2023-04-08T08:14:15;99528.72;;;3.52;87.38
44697;BME280;57264;47.480;19.354;2023-04-08T08:16:40;99534.13;;;3.41;87.62
44697;BME280;57264;47.480;19.354;2023-04-08T08:19:06;99525.63;;;3.49;87.10
44697;BME280;57264;47.480;19.354;2023-04-08T08:21:36;99531.16;;;3.54;85.73
44697;BME280;57264;47.480;19.354;2023-04-08T08:24:01;99538.66;;;3.57;86.21
44697;BME280;57264;47.480;19.354;2023-04-08T08:26:27;99540.41;;;3.30;86.23
44697;BME280;57264;47.480;19.354;2023-04-08T08:28:53;99544.94;;;3.28;86.45
44697;BME280;57264;47.480;19.354;2023-04-08T08:31:19;99546.88;;;3.26;86.48
44697;BME280;57264;47.480;19.354;2023-04-08T08:33:44;99551.09;;;3.27;86.81
44697;BME280;57264;47.480;19.354;2023-04-08T08:36:11;99545.16;;;3.35;87.33
44697;BME280;57264;47.480;19.354;2023-04-08T08:38:37;99543.88;;;3.65;86.04
44697;BME280;57264;47.480;19.354;2023-04-08T08:41:03;99537.06;;;3.64;85.21
44697;BME280;57264;47.480;19.354;2023-04-08T08:43:29;99544.16;;;3.88;85.98
44697;BME280;57264;47.480;19.354;2023-04-08T08:45:58;99554.47;;;3.71;84.78
44697;BME280;57264;47.480;19.354;2023-04-08T08:48:24;99544.94;;;3.80;84.81
44697;BME280;57264;47.480;19.354;2023-04-08T08:50:50;99554.91;;;3.93;84.71
44697;BME280;57264;47.480;19.354;2023-04-08T08:53:16;99548.66;;;4.19;84.53
44697;BME280;57264;47.480;19.354;2023-04-08T08:55:41;99553.44;;;3.98;83.20
44697;BME280;57264;47.480;19.354;2023-04-08T08:58:07;99550.00;;;3.90;84.06
44697;BME280;57264;47.480;19.354;2023-04-08T09:00:37;99556.88;;;3.99;84.71
44697;BME280;57264;47.480;19.354;2023-04-08T09:03:35;99556.44;;;4.11;84.48
44697;BME280;57264;47.480;19.354;2023-04-08T09:06:02;99556.63;;;4.26;85.37
44697;BME280;57264;47.480;19.354;2023-04-08T09:08:31;99563.19;;;3.96;83.69
44697;BME280;57264;47.480;19.354;2023-04-08T09:11:17;99566.22;;;3.84;85.82
44697;BME280;57264;47.480;19.354;2023-04-08T09:13:44;99572.09;;;3.94;85.03
44697;BME280;57264;47.480;19.354;2023-04-08T09:16:12;99569.25;;;4.05;83.02
44697;BME280;57264;47.480;19.354;2023-04-08T09:18:39;99570.06;;;4.13;83.79
44697;BME280;57264;47.480;19.354;2023-04-08T09:21:08;99573.00;;;4.18;84.07
44697;BME280;57264;47.480;19.354;2023-04-08T09:26:12;99574.03;;;4.34;83.95
44697;BME280;57264;47.480;19.354;2023-04-08T09:28:39;99583.56;;;4.67;82.64
44697;BME280;57264;47.480;19.354;2023-04-08T09:31:25;99570.72;;;4.65;81.93
44697;BME280;57264;47.480;19.354;2023-04-08T09:33:54;99580.53;;;5.04;82.36
44697;BME280;57264;47.480;19.354;2023-04-08T09:36:20;99582.59;;;4.60;82.16
44697;BME280;57264;47.480;19.354;2023-04-08T09:38:46;99582.94;;;4.73;82.50
44697;BME280;57264;47.480;19.354;2023-04-08T09:41:16;99581.34;;;4.96;82.86
44697;BME280;57264;47.480;19.354;2023-04-08T09:44:03;99579.66;;;4.71;81.56
44697;BME280;57264;47.480;19.354;2023-04-08T09:49:44;99587.38;;;5.05;82.30
44697;BME280;57264;47.480;19.354;2023-04-08T09:52:20;99586.69;;;4.87;81.54
44697;BME280;57264;47.480;19.354;2023-04-08T09:58:01;99585.47;;;4.41;81.61
44697;BME280;57264;47.480;19.354;2023-04-08T10:00:32;99589.91;;;4.22;83.11
44697;BME280;57264;47.480;19.354;2023-04-08T10:05:46;99593.59;;;4.54;81.17
44697;BME280;57264;47.480;19.354;2023-04-08T10:08:13;99588.91;;;4.65;81.70
44697;BME280;57264;47.480;19.354;2023-04-08T10:10:40;99589.38;;;4.45;82.53
44697;BME280;57264;47.480;19.354;2023-04-08T10:13:06;99600.41;;;4.47;82.20
44697;BME280;57264;47.480;19.354;2023-04-08T10:15:33;99595.50;;;4.36;82.43
44697;BME280;57264;47.480;19.354;2023-04-08T10:30:40;99594.78;;;4.25;82.68
44697;BME280;57264;47.480;19.354;2023-04-08T10:33:33;99593.88;;;4.35;83.12
44697;BME280;57264;47.480;19.354;2023-04-08T10:36:11;99596.81;;;4.40;83.02
44697;BME280;57264;47.480;19.354;2023-04-08T10:38:40;99598.31;;;4.50;81.60
44697;BME280;57264;47.480;19.354;2023-04-08T10:41:08;99586.91;;;4.43;80.45
44697;BME280;57264;47.480;19.354;2023-04-08T10:43:35;99602.34;;;4.37;83.18
44697;BME280;57264;47.480;19.354;2023-04-08T10:46:01;99597.44;;;4.34;83.20
44697;BME280;57264;47.480;19.354;2023-04-08T10:48:27;99595.59;;;4.68;82.52
44697;BME280;57264;47.480;19.354;2023-04-08T10:51:03;99598.59;;;4.89;81.91
44697;BME280;57264;47.480;19.354;2023-04-08T10:53:35;99595.47;;;4.94;80.27
44697;BME280;57264;47.480;19.354;2023-04-08T10:56:09;99594.69;;;5.09;80.64
44697;BME280;57264;47.480;19.354;2023-04-08T10:58:47;99605.88;;;5.02;80.11
44697;BME280;57264;47.480;19.354;2023-04-08T11:01:13;99593.06;;;4.92;81.18
44697;BME280;57264;47.480;19.354;2023-04-08T11:03:38;99598.59;;;5.30;81.99
44697;BME280;57264;47.480;19.354;2023-04-08T11:06:04;99596.97;;;5.04;80.79
44697;BME280;57264;47.480;19.354;2023-04-08T11:08:31;99595.16;;;4.89;81.44
44697;BME280;57264;47.480;19.354;2023-04-08T11:10:58;99595.81;;;4.99;79.81
44697;BME280;57264;47.480;19.354;2023-04-08T11:13:27;99595.63;;;4.84;79.79
44697;BME280;57264;47.480;19.354;2023-04-08T11:15:54;99592.53;;;4.81;81.68
44697;BME280;57264;47.480;19.354;2023-04-08T11:18:21;99596.25;;;4.78;79.37
44697;BME280;57264;47.480;19.354;2023-04-08T11:20:50;99588.81;;;4.83;80.54
44697;BME280;57264;47.480;19.354;2023-04-08T11:23:16;99599.56;;;5.04;79.84
44697;BME280;57264;47.480;19.354;2023-04-08T11:25:45;99588.94;;;4.82;80.93
44697;BME280;57264;47.480;19.354;2023-04-08T11:28:11;99598.91;;;5.02;79.20
44697;BME280;57264;47.480;19.354;2023-04-08T11:30:41;99599.91;;;5.17;79.48
44697;BME280;57264;47.480;19.354;2023-04-08T11:33:07;99598.06;;;4.86;79.49
44697;BME280;57264;47.480;19.354;2023-04-08T11:35:33;99595.72;;;4.58;79.80
44697;BME280;57264;47.480;19.354;2023-04-08T11:38:01;99594.97;;;4.82;79.95
44697;BME280;57264;47.480;19.354;2023-04-08T11:40:28;99599.88;;;4.93;80.78
44697;BME280;57264;47.480;19.354;2023-04-08T11:42:54;99602.50;;;5.01;79.65
44697;BME280;57264;47.480;19.354;2023-04-08T11:45:20;99599.88;;;5.26;79.23
44697;BME280;57264;47.480;19.354;2023-04-08T11:47:47;99597.13;;;5.27;78.56
44697;BME280;57264;47.480;19.354;2023-04-08T11:50:21;99602.00;;;5.30;78.20
44697;BME280;57264;47.480;19.354;2023-04-08T11:52:51;99598.75;;;5.36;79.03
44697;BME280;57264;47.480;19.354;2023-04-08T11:55:35;99600.88;;;5.08;77.96
44697;BME280;57264;47.480;19.354;2023-04-08T11:58:03;99603.59;;;4.83;78.93
44697;BME280;57264;47.480;19.354;2023-04-08T12:00:29;99601.41;;;4.62;80.69
44697;BME280;57264;47.480;19.354;2023-04-08T12:02:55;99605.16;;;4.59;81.52
44697;BME280;57264;47.480;19.354;2023-04-08T12:05:21;99612.06;;;4.35;83.08
44697;BME280;57264;47.480;19.354;2023-04-08T12:07:46;99604.03;;;4.20;83.53
44697;BME280;57264;47.480;19.354;2023-04-08T12:10:12;99598.69;;;4.21;83.51
44697;BME280;57264;47.480;19.354;2023-04-08T12:12:39;99601.03;;;4.33;82.43
44697;BME280;57264;47.480;19.354;2023-04-08T12:15:05;99604.19;;;4.18;80.77
44697;BME280;57264;47.480;19.354;2023-04-08T12:17:32;99600.19;;;4.32;81.57
44697;BME280;57264;47.480;19.354;2023-04-08T12:19:58;99600.78;;;4.60;80.73
44697;BME280;57264;47.480;19.354;2023-04-08T12:22:23;99600.50;;;4.87;80.57
44697;BME280;57264;47.480;19.354;2023-04-08T12:24:49;99601.19;;;5.30;79.93
44697;BME280;57264;47.480;19.354;2023-04-08T12:27:14;99589.66;;;5.24;78.62
44697;BME280;57264;47.480;19.354;2023-04-08T12:29:40;99601.34;;;5.60;78.41
44697;BME280;57264;47.480;19.354;2023-04-08T12:32:05;99600.22;;;5.55;76.60
44697;BME280;57264;47.480;19.354;2023-04-08T12:34:31;99591.28;;;5.49;77.64
44697;BME280;57264;47.480;19.354;2023-04-08T12:36:57;99597.78;;;5.53;76.20
44697;BME280;57264;47.480;19.354;2023-04-08T12:39:23;99596.13;;;5.77;77.48
44697;BME280;57264;47.480;19.354;2023-04-08T12:41:49;99599.03;;;5.90;75.36
44697;BME280;57264;47.480;19.354;2023-04-08T12:44:14;99598.72;;;5.77;74.92
44697;BME280;57264;47.480;19.354;2023-04-08T12:46:40;99595.31;;;5.60;76.26
44697;BME280;57264;47.480;19.354;2023-04-08T12:49:06;99598.88;;;5.91;76.00
44697;BME280;57264;47.480;19.354;2023-04-08T12:51:33;99596.13;;;6.32;76.37
44697;BME280;57264;47.480;19.354;2023-04-08T12:54:00;99591.50;;;6.03;75.26
44697;BME280;57264;47.480;19.354;2023-04-08T12:56:28;99586.31;;;5.95;76.14
44697;BME280;57264;47.480;19.354;2023-04-08T12:58:54;99591.69;;;6.01;76.67
44697;BME280;57264;47.480;19.354;2023-04-08T13:01:22;99590.97;;;6.16;75.76
44697;BME280;57264;47.480;19.354;2023-04-08T13:03:48;99590.72;;;5.94;75.85
44697;BME280;57264;47.480;19.354;2023-04-08T13:06:14;99590.06;;;6.00;76.30
44697;BME280;57264;47.480;19.354;2023-04-08T13:08:39;99591.31;;;6.21;76.84
44697;BME280;57264;47.480;19.354;2023-04-08T13:11:06;99587.53;;;6.54;75.86
44697;BME280;57264;47.480;19.354;2023-04-08T13:13:32;99591.44;;;6.58;75.73
44697;BME280;57264;47.480;19.354;2023-04-08T13:15:57;99589.41;;;6.45;76.39
44697;BME280;57264;47.480;19.354;2023-04-08T13:18:23;99586.06;;;6.59;78.11
44697;BME280;57264;47.480;19.354;2023-04-08T13:20:49;99586.97;;;6.44;76.73
44697;BME280;57264;47.480;19.354;2023-04-08T13:23:15;99596.56;;;6.04;76.59
44697;BME280;57264;47.480;19.354;2023-04-08T13:25:42;99596.91;;;5.85;76.45
44697;BME280;57264;47.480;19.354;2023-04-08T13:28:09;99588.13;;;5.86;76.09